McIntosh, South Dakota
Current Conditions -  °F | °C
As of 2:52 PM on Monday 24 Nov 2014 (Local Time) from KMBG Reporting Station
Clear Clear  
Wind Chill: 16°   Ceiling: Unl
Heat Index: 27°   Visibility: 10mi
Dew Point:   Wind: 14mph
Humidity: 47%   Direction: 320°NW
Pressure: 29.95"   Gusts: NA
Location:  45.92°N, 101.35°W
Report Text: KMBG 242152Z AUTO 32012KT 10SM CLR M03/M13 A2995 RMK AO2 SLP169 T10281128
Loading
Personal Weather Stations






























Interactive Weather Map New forecast layout! Learn more

10-Day Weather Forecast

Advertisements
Track Severe Weather on mobile